Time;durP1;ratioP1;P1;durP2;ratioP2;P2;SDS_P1;SDS_P2;PMS_P1;PMS_P2;Temp;Humidity;BMP_temperature;BMP_pressure;BME280_temperature;BME280_humidity;BME280_pressure;Samples;Min_cycle;Max_cycle;Signal;HPM_P1;HPM_P2
2021/01/27 00:03:57;;;;;;;32.17;19.30;;;;;;;3.15;82.57;99918.95;2890653;81;21142;-63
2021/01/27 00:08:01;;;;;;;28.50;21.73;;;;;;;3.09;83.03;99927.16;2931419;81;21059;-62
2021/01/27 00:12:05;;;;;;;28.85;21.10;;;;;;;2.99;83.44;99936.03;2938199;81;21103;-62
2021/01/27 00:16:08;;;;;;;44.42;22.87;;;;;;;2.95;83.82;99915.67;2938168;81;21120;-62
2021/01/27 00:20:14;;;;;;;30.35;17.65;;;;;;;2.99;83.82;99930.32;2938302;81;21086;-62
2021/01/27 00:24:18;;;;;;;25.40;15.40;;;;;;;2.88;83.95;99931.86;2937990;81;21122;-63
2021/01/27 00:28:21;;;;;;;32.60;21.27;;;;;;;2.88;83.90;99918.72;2938089;81;21102;-64
2021/01/27 00:32:25;;;;;;;28.20;21.12;;;;;;;2.92;83.75;99928.95;2938079;81;21082;-63
2021/01/27 00:36:28;;;;;;;28.75;19.77;;;;;;;2.92;83.81;99922.86;2938043;80;21125;-64
2021/01/27 00:40:30;;;;;;;29.65;19.20;;;;;;;2.90;83.78;99928.19;2938199;80;21150;-62
2021/01/27 00:44:34;;;;;;;31.42;20.15;;;;;;;2.87;83.82;99927.53;2938174;81;21094;-65
2021/01/27 00:48:37;;;;;;;39.63;23.15;;;;;;;2.73;83.61;99917.77;2935787;80;21110;-64
2021/01/27 00:52:40;;;;;;;28.80;18.57;;;;;;;2.87;83.51;99934.11;2901362;81;21154;-63
2021/01/27 00:56:42;;;;;;;25.75;17.90;;;;;;;2.79;83.37;99926.16;2895322;81;21114;-63
2021/01/27 01:00:46;;;;;;;26.30;16.87;;;;;;;2.81;83.08;99921.67;2887147;81;21115;-65
2021/01/27 01:04:49;;;;;;;29.95;18.62;;;;;;;2.78;82.89;99928.89;2879576;82;21105;-63
2021/01/27 01:08:51;;;;;;;23.18;15.65;;;;;;;2.77;83.03;99916.20;2884997;82;21103;-64
2021/01/27 01:12:55;;;;;;;32.13;18.98;;;;;;;2.76;82.83;99930.76;2889999;81;21067;-63
2021/01/27 01:16:58;;;;;;;24.63;16.87;;;;;;;2.77;82.70;99928.52;2892083;82;21521;-63
2021/01/27 01:21:01;;;;;;;24.52;16.32;;;;;;;2.78;82.74;99942.03;2910082;81;21090;-65
2021/01/27 01:25:06;;;;;;;25.82;16.52;;;;;;;2.76;82.58;99933.39;2938494;81;21094;-64
2021/01/27 01:29:09;;;;;;;30.82;17.57;;;;;;;2.81;82.49;99931.34;2938276;81;21098;-64
2021/01/27 01:33:23;;;;;;;24.25;16.10;;;;;;;2.85;82.43;99928.92;2938129;81;21102;-62
2021/01/27 01:37:26;;;;;;;28.05;17.07;;;;;;;2.86;82.11;99938.50;2936078;81;21094;-63
2021/01/27 01:41:29;;;;;;;26.87;16.70;;;;;;;2.92;82.21;99937.31;2937945;81;21098;-63
2021/01/27 01:45:38;;;;;;;23.55;15.48;;;;;;;2.91;82.47;99936.94;2938370;81;21094;-62
2021/01/27 01:49:41;;;;;;;25.62;17.92;;;;;;;2.82;82.51;99945.69;2938246;81;21521;-62
2021/01/27 01:53:51;;;;;;;27.52;15.28;;;;;;;2.85;82.59;99947.31;2938173;81;21090;-62
2021/01/27 01:57:55;;;;;;;27.55;17.45;;;;;;;2.80;82.76;99938.36;2980585;77;21081;-66
2021/01/27 02:02:02;;;;;;;21.33;13.50;;;;;;;2.87;82.81;99949.39;2940815;81;21166;-64
2021/01/27 02:06:09;;;;;;;44.85;22.98;;;;;;;2.79;83.01;99957.69;3059756;77;21081;-63
2021/01/27 02:10:15;;;;;;;46.77;23.18;;;;;;;2.83;82.86;99961.00;2940841;81;21087;-62
2021/01/27 02:14:32;;;;;;;27.62;15.95;;;;;;;2.80;82.86;99962.48;3059614;77;21121;-64
2021/01/27 02:19:11;;;;;;;25.45;15.30;;;;;;;2.80;82.75;99960.69;2941264;81;21080;-63
2021/01/27 02:23:43;;;;;;;28.05;17.90;;;;;;;2.81;82.26;99957.13;3058772;77;21058;-65
2021/01/27 02:28:05;;;;;;;21.52;14.13;;;;;;;2.92;81.81;99959.17;3048633;77;21062;-63
2021/01/27 02:32:39;;;;;;;18.92;12.25;;;;;;;2.94;81.38;99952.05;2941130;80;21142;-64
2021/01/27 02:36:46;;;;;;;19.95;12.75;;;;;;;2.96;81.04;99956.78;3060231;77;21082;-63
2021/01/27 02:41:17;;;;;;;18.55;12.88;;;;;;;2.89;80.35;99956.71;2940752;80;21135;-64
2021/01/27 02:45:34;;;;;;;27.27;13.95;;;;;;;2.90;80.29;99956.27;3059383;77;21064;-66
2021/01/27 02:49:40;;;;;;;;;;;;;;;2.90;79.85;99960.20;3063158;77;21082;-63
2021/01/27 02:53:56;;;;;;;12.40;9.58;;;;;;;2.89;79.42;99955.40;3060287;77;20123;-64
2021/01/27 02:58:07;;;;;;;20.60;9.05;;;;;;;2.85;79.25;99965.25;3049758;77;21118;-64
2021/01/27 03:02:44;;;;;;;18.48;10.65;;;;;;;2.85;79.25;99965.25;3024224;78;21050;-62
2021/01/27 03:06:49;;;;;;;20.20;10.97;;;;;;;2.85;78.99;99965.70;2889629;81;21086;-64
2021/01/27 03:11:16;;;;;;;16.60;11.08;;;;;;;2.81;78.99;99962.38;3023759;78;21501;-64
2021/01/27 03:15:22;;;;;;;12.93;8.33;;;;;;;2.79;79.02;99972.13;3025680;78;21074;-63
2021/01/27 03:19:38;;;;;;;17.52;13.00;;;;;;;2.79;79.11;99971.30;2889658;82;21083;-65
2021/01/27 03:24:03;;;;;;;14.15;10.18;;;;;;;2.73;79.01;99971.61;3027044;78;21062;-62
2021/01/27 03:28:32;;;;;;;15.80;10.50;;;;;;;2.68;78.91;99971.89;2888725;81;21110;-63
2021/01/27 03:32:53;;;;;;;16.80;8.53;;;;;;;2.60;79.43;99973.61;2924565;80;21083;-64
2021/01/27 03:37:26;;;;;;;18.23;12.53;;;;;;;2.55;80.17;99976.92;2912988;81;21067;-65
2021/01/27 03:41:37;;;;;;;16.17;9.73;;;;;;;2.57;80.69;99976.41;3024110;78;21114;-62
2021/01/27 03:45:50;;;;;;;15.43;10.85;;;;;;;2.64;80.59;99975.59;3022939;78;21071;-64
2021/01/27 03:50:04;;;;;;;17.15;10.82;;;;;;;2.71;80.45;99978.28;3023239;78;21079;-63
2021/01/27 03:54:17;;;;;;;15.08;10.45;;;;;;;2.73;80.11;99979.05;3000984;78;21090;-64
2021/01/27 03:58:44;;;;;;;17.70;12.45;;;;;;;2.75;79.99;99978.49;3010143;78;21093;-63
2021/01/27 04:03:04;;;;;;;18.30;9.65;;;;;;;2.76;79.98;99986.75;3007335;77;21078;-63
2021/01/27 04:07:07;;;;;;;13.72;8.88;;;;;;;2.76;79.67;99985.44;3005144;79;21078;-65
2021/01/27 04:11:10;;;;;;;18.07;9.85;;;;;;;2.71;79.38;99988.31;3005297;78;21074;-66
2021/01/27 04:15:14;;;;;;;15.10;9.45;;;;;;;2.69;78.35;99991.48;3005404;78;21058;-65
2021/01/27 04:19:17;;;;;;;15.13;7.72;;;;;;;2.68;78.08;99992.41;3005428;79;21082;-64
2021/01/27 04:23:20;;;;;;;12.25;7.37;;;;;;;2.62;78.05;99991.44;3026635;77;21113;-65
2021/01/27 04:27:25;;;;;;;12.35;6.40;;;;;;;2.60;77.80;99992.44;2941470;81;21085;-66
2021/01/27 04:31:28;;;;;;;12.53;6.72;;;;;;;2.53;77.83;99984.04;2994156;79;21094;-66
2021/01/27 04:35:32;;;;;;;11.03;7.03;;;;;;;2.51;78.28;99987.21;2941461;81;21135;-64
2021/01/27 04:39:35;;;;;;;10.13;6.08;;;;;;;2.53;78.25;99989.29;2994050;79;21137;-64
2021/01/27 04:43:46;;;;;;;9.35;6.53;;;;;;;2.49;78.35;99987.77;2941541;81;21090;-64
2021/01/27 04:48:12;;;;;;;11.05;5.30;;;;;;;2.45;78.24;99983.61;2993973;79;21126;-65
2021/01/27 04:52:29;;;;;;;11.20;6.33;;;;;;;2.47;78.49;99979.13;2994184;79;21094;-65
2021/01/27 04:56:44;;;;;;;;;;;;;;;2.47;78.53;99973.88;2944031;81;21122;-64
2021/01/27 05:01:12;;;;;;;16.65;7.58;;;;;;;2.50;78.55;99978.95;2946977;79;20116;-66
2021/01/27 05:05:23;;;;;;;15.30;10.10;;;;;;;2.51;78.65;99978.02;2937860;81;21106;-64
2021/01/27 05:09:55;;;;;;;11.75;8.55;;;;;;;2.58;78.73;99987.29;3111196;76;22752;-62
2021/01/27 05:14:01;;;;;;;16.30;9.70;;;;;;;2.54;78.90;99980.03;3048406;76;21092;-63
2021/01/27 05:18:04;;;;;;;14.78;10.20;;;;;;;2.59;79.13;99982.42;3062658;77;21101;-65
2021/01/27 05:22:08;;;;;;;15.35;7.83;;;;;;;2.62;79.32;99984.88;3051605;77;21124;-63
2021/01/27 05:26:15;;;;;;;12.65;10.88;;;;;;;2.62;79.74;99986.19;3053337;76;21089;-69
2021/01/27 05:30:27;;;;;;;;;;;;;;;2.69;79.69;99988.86;3065380;76;21061;-70
2021/01/27 05:34:49;;;;;;;16.27;9.78;;;;;;;2.73;79.83;99980.80;3064275;77;20387;-67
2021/01/27 05:39:13;;;;;;;12.40;10.53;;;;;;;2.77;79.90;99987.61;3080965;77;21069;-66
2021/01/27 05:43:28;;;;;;;16.55;9.15;;;;;;;2.76;80.07;99983.30;3080638;77;21069;-66
2021/01/27 05:47:38;;;;;;;15.13;9.08;;;;;;;2.76;80.20;99978.87;3078338;77;21077;-65
2021/01/27 05:51:41;;;;;;;14.68;7.80;;;;;;;2.76;80.18;99985.92;3025041;78;21049;-64
2021/01/27 05:56:15;;;;;;;18.42;10.30;;;;;;;2.77;80.35;99994.18;3025271;78;21074;-64
2021/01/27 06:00:26;;;;;;;17.00;10.55;;;;;;;2.79;80.45;99998.89;3024901;78;21077;-66
2021/01/27 06:04:33;;;;;;;14.35;8.18;;;;;;;2.82;80.27;99998.72;3025023;78;21077;-65
2021/01/27 06:08:41;;;;;;;15.20;10.18;;;;;;;2.80;80.37;100000.58;3022664;77;21080;-65
2021/01/27 06:12:44;;;;;;;18.37;12.75;;;;;;;2.83;80.13;100003.87;3020346;77;21061;-67
2021/01/27 06:16:49;;;;;;;14.03;9.25;;;;;;;2.87;79.67;100004.56;3021895;78;21073;-65
2021/01/27 06:21:01;;;;;;;15.98;9.23;;;;;;;2.85;79.55;99997.23;3020731;78;21467;-67
2021/01/27 06:25:43;;;;;;;17.57;8.53;;;;;;;2.87;79.11;99999.30;2985462;78;21069;-65
2021/01/27 06:30:16;;;;;;;20.23;11.28;;;;;;;2.88;79.16;100004.11;3020810;78;21057;-66
2021/01/27 06:34:46;;;;;;;17.52;10.70;;;;;;;2.87;79.15;100007.67;3020713;78;21089;-65
2021/01/27 06:39:14;;;;;;;12.45;9.60;;;;;;;2.89;78.65;100007.95;3020972;78;21097;-67
2021/01/27 06:43:50;;;;;;;19.12;7.47;;;;;;;2.93;78.49;100006.84;3020819;78;21077;-67
2021/01/27 06:48:15;;;;;;;15.43;12.03;;;;;;;2.92;77.48;100000.37;3003042;77;21091;-66
2021/01/27 06:52:23;;;;;;;14.50;9.60;;;;;;;2.90;77.40;100010.95;3020663;78;21041;-67
2021/01/27 06:56:34;;;;;;;12.10;8.20;;;;;;;2.91;77.32;100008.70;3020595;77;21058;-66
2021/01/27 07:01:07;;;;;;;15.40;9.78;;;;;;;2.88;77.39;100011.98;3020880;78;21085;-68
2021/01/27 07:05:18;;;;;;;15.32;8.93;;;;;;;2.85;77.33;100009.05;3019581;78;21062;-65
2021/01/27 07:09:32;;;;;;;17.45;9.45;;;;;;;2.88;77.68;100013.30;3031181;78;21609;-68
2021/01/27 07:14:26;;;;;;;17.20;11.15;;;;;;;2.93;77.62;100018.66;3034279;78;21064;-67
2021/01/27 07:18:54;;;;;;;14.73;9.33;;;;;;;2.94;77.69;100012.48;3033969;78;21515;-68
2021/01/27 07:23:35;;;;;;;17.75;10.93;;;;;;;2.99;77.62;100007.84;3034264;78;21080;-68
2021/01/27 07:28:09;;;;;;;15.48;10.95;;;;;;;3.06;77.50;100018.01;3034158;78;21069;-65
2021/01/27 07:32:37;;;;;;;22.95;10.38;;;;;;;3.08;77.38;100013.52;3032343;78;21096;-67
2021/01/27 07:37:26;;;;;;;20.25;8.78;;;;;;;3.14;77.51;100017.11;3034357;78;21123;-65
2021/01/27 07:41:34;;;;;;;12.47;8.60;;;;;;;3.18;76.73;100012.54;3034252;78;21045;-67
2021/01/27 07:45:39;;;;;;;12.35;6.78;;;;;;;3.16;76.23;100019.22;3032912;78;21077;-65
2021/01/27 07:49:48;;;;;;;12.00;9.38;;;;;;;3.10;75.95;100020.84;3034154;77;21120;-67
2021/01/27 07:54:13;;;;;;;18.02;10.75;;;;;;;3.13;76.46;100024.61;3033992;78;21072;-66
2021/01/27 07:58:47;;;;;;;19.23;11.63;;;;;;;3.18;76.27;100012.54;3034137;78;21069;-66
2021/01/27 08:03:04;;;;;;;18.25;13.08;;;;;;;3.24;76.39;100009.11;3033921;78;21069;-66
2021/01/27 08:07:08;;;;;;;;;;;;;;;3.34;76.38;100017.78;3034193;78;21077;-66
2021/01/27 08:11:16;;;;;;;18.05;11.28;;;;;;;3.36;76.53;100015.94;3019633;78;20108;-65
2021/01/27 08:15:30;;;;;;;15.35;9.58;;;;;;;3.32;76.52;100024.91;3020541;78;21101;-65
2021/01/27 08:19:33;;;;;;;20.00;11.57;;;;;;;3.28;77.02;100029.03;3020495;78;21050;-66
2021/01/27 08:23:47;;;;;;;20.23;12.50;;;;;;;3.19;77.37;100036.58;3020473;78;21073;-68
2021/01/27 08:27:55;;;;;;;26.27;16.12;;;;;;;3.20;77.89;100036.50;3020654;78;21081;-65
2021/01/27 08:32:34;;;;;;;19.50;12.43;;;;;;;3.23;78.20;100040.27;3014502;78;21081;-64
2021/01/27 08:36:42;;;;;;;19.75;13.22;;;;;;;3.28;78.22;100048.75;2992917;77;21097;-67
2021/01/27 08:40:45;;;;;;;19.87;13.30;;;;;;;3.37;78.16;100050.50;3020483;78;21097;-66
2021/01/27 08:44:49;;;;;;;16.80;13.18;;;;;;;3.37;78.17;100050.02;3020513;78;21069;-65
2021/01/27 08:48:54;;;;;;;22.25;13.48;;;;;;;3.43;78.71;100059.35;3020734;77;21057;-67
2021/01/27 08:53:18;;;;;;;23.75;16.02;;;;;;;3.46;78.42;100059.18;3020627;78;21080;-65
2021/01/27 08:57:37;;;;;;;25.30;14.33;;;;;;;3.51;78.23;100058.45;3020490;78;21068;-67
2021/01/27 09:01:52;;;;;;;26.52;17.95;;;;;;;3.56;78.48;100051.17;3020456;78;21077;-65
2021/01/27 09:05:59;;;;;;;22.90;15.37;;;;;;;3.62;78.37;100059.16;3021114;78;21081;-66
2021/01/27 09:10:04;;;;;;;26.90;16.73;;;;;;;3.73;78.37;100059.02;3031957;78;21283;-67
2021/01/27 09:14:11;;;;;;;24.65;15.32;;;;;;;3.81;77.82;100061.60;3033885;78;21085;-67
2021/01/27 09:18:14;;;;;;;24.37;15.00;;;;;;;3.89;77.42;100059.84;3033969;78;21539;-66
2021/01/27 09:22:23;;;;;;;21.33;12.18;;;;;;;3.98;77.48;100056.67;3033796;78;21096;-66
2021/01/27 09:26:39;;;;;;;25.48;16.40;;;;;;;4.06;76.69;100054.91;3033961;78;21093;-66
2021/01/27 09:30:42;;;;;;;21.90;14.15;;;;;;;4.07;76.45;100063.19;3034093;78;21108;-66
2021/01/27 09:34:46;;;;;;;19.52;14.83;;;;;;;4.13;76.52;100064.62;3033757;78;21104;-64
2021/01/27 09:38:52;;;;;;;26.52;15.30;;;;;;;4.27;76.92;100062.03;3034151;78;21085;-67
2021/01/27 09:43:02;;;;;;;25.72;16.30;;;;;;;4.35;76.46;100073.88;3034134;78;21089;-64
2021/01/27 09:47:10;;;;;;;21.40;15.48;;;;;;;4.32;75.57;100074.90;3033913;78;21064;-66
2021/01/27 09:51:15;;;;;;;19.90;12.88;;;;;;;4.32;75.80;100070.95;3034147;77;21110;-66
2021/01/27 09:55:20;;;;;;;20.88;14.10;;;;;;;4.24;75.75;100066.62;3034164;78;21099;-65
2021/01/27 09:59:23;;;;;;;20.57;12.95;;;;;;;4.24;76.29;100063.98;3034390;78;21120;-66
2021/01/27 10:03:40;;;;;;;21.97;14.28;;;;;;;4.23;76.06;100060.52;3034070;78;21060;-66
2021/01/27 10:07:43;;;;;;;;;;;;;;;4.20;76.37;100059.84;3034456;78;21113;-65
2021/01/27 10:11:50;;;;;;;20.08;14.70;;;;;;;4.17;76.23;100047.70;3020945;78;20121;-66
2021/01/27 10:15:58;;;;;;;24.72;16.25;;;;;;;4.25;75.90;100048.56;3019823;78;21093;-64
2021/01/27 10:20:21;;;;;;;25.92;17.05;;;;;;;4.48;76.50;100051.60;3020942;78;21065;-65
2021/01/27 10:24:49;;;;;;;24.92;16.52;;;;;;;4.68;74.68;100043.34;3020758;78;21073;-64
2021/01/27 10:29:13;;;;;;;20.60;13.28;;;;;;;4.86;74.67;100038.73;3020799;78;21081;-64
2021/01/27 10:33:49;;;;;;;16.95;11.85;;;;;;;4.99;73.37;100026.95;3017562;78;21543;-67
2021/01/27 10:38:14;;;;;;;18.67;12.80;;;;;;;5.02;72.88;100027.70;3020799;78;21132;-64
2021/01/27 10:42:22;;;;;;;22.93;12.98;;;;;;;5.18;73.81;100027.56;3020247;78;21108;-67
2021/01/27 10:46:34;;;;;;;21.45;11.63;;;;;;;5.24;72.40;100037.26;3018696;78;21105;-65
2021/01/27 10:50:44;;;;;;;16.80;12.05;;;;;;;5.22;72.77;100030.41;3020966;77;21085;-67
2021/01/27 10:54:55;;;;;;;19.77;11.38;;;;;;;5.20;73.26;100032.27;3017715;77;21116;-64
2021/01/27 10:58:58;;;;;;;16.87;13.38;;;;;;;5.08;73.09;100032.58;3020656;78;21061;-67
2021/01/27 11:03:01;;;;;;;15.30;9.80;;;;;;;5.02;73.26;100032.97;3021427;78;21125;-64
2021/01/27 11:07:05;;;;;;;18.70;12.70;;;;;;;4.94;73.06;100029.49;3020936;78;21196;-64
2021/01/27 11:11:07;;;;;;;12.15;10.00;;;;;;;4.96;73.84;100023.66;3023830;78;21073;-65
2021/01/27 11:15:11;;;;;;;18.12;13.55;;;;;;;4.96;73.85;100028.92;3024322;78;21077;-65
2021/01/27 11:19:15;;;;;;;15.43;11.73;;;;;;;5.03;74.38;100021.48;3024100;78;21527;-65
2021/01/27 11:23:21;;;;;;;16.60;11.38;;;;;;;5.05;74.15;100023.55;3024533;78;21084;-66
2021/01/27 11:27:24;;;;;;;19.90;11.67;;;;;;;5.18;74.11;100022.30;3024448;78;21064;-66
2021/01/27 11:31:29;;;;;;;14.18;8.45;;;;;;;5.28;73.62;100016.33;3024399;78;21089;-67
2021/01/27 11:35:33;;;;;;;16.20;10.90;;;;;;;5.39;71.88;100004.27;3024246;78;21625;-66
2021/01/27 11:39:36;;;;;;;21.62;10.45;;;;;;;5.45;72.16;100009.13;3024188;78;21089;-65
2021/01/27 11:43:41;;;;;;;19.35;11.73;;;;;;;5.34;70.69;100001.08;3024157;78;21088;-64
2021/01/27 11:47:43;;;;;;;17.60;13.55;;;;;;;5.29;71.44;100004.01;3024213;77;21140;-65
2021/01/27 11:51:47;;;;;;;15.20;10.82;;;;;;;5.38;72.24;99999.93;3024237;78;21069;-64
2021/01/27 11:55:52;;;;;;;23.80;13.50;;;;;;;5.47;71.88;100004.59;3024563;78;21073;-66
2021/01/27 11:59:55;;;;;;;13.72;10.28;;;;;;;5.58;71.63;99995.52;3024411;78;21041;-65
2021/01/27 12:03:58;;;;;;;16.40;11.90;;;;;;;5.45;70.92;99989.34;3024350;78;21101;-65
2021/01/27 12:08:01;;;;;;;15.50;9.48;;;;;;;5.42;71.05;99988.23;3024272;78;21179;-66
2021/01/27 12:12:07;;;;;;;15.28;10.70;;;;;;;5.32;71.87;100006.44;3024092;78;21144;-66
2021/01/27 12:16:10;;;;;;;18.62;11.10;;;;;;;5.30;72.50;99993.83;3024125;78;21093;-66
2021/01/27 12:20:15;;;;;;;15.20;11.90;;;;;;;5.33;72.27;99990.98;3023969;78;21065;-64
2021/01/27 12:24:18;;;;;;;11.25;9.33;;;;;;;5.39;71.39;99993.70;3024195;78;21101;-65
2021/01/27 12:28:21;;;;;;;14.95;11.55;;;;;;;5.40;70.64;99990.98;3023888;78;21180;-65
2021/01/27 12:32:24;;;;;;;16.37;9.85;;;;;;;5.44;70.74;99981.05;3023919;78;21100;-66
2021/01/27 12:36:27;;;;;;;25.08;18.90;;;;;;;5.53;70.43;99971.70;3024223;78;21080;-66
